Time;durP1;ratioP1;P1;durP2;ratioP2;P2;SDS_P1;SDS_P2;PMS_P1;PMS_P2;Temp;Humidity;BMP_temperature;BMP_pressure;BME280_temperature;BME280_humidity;BME280_pressure;Samples;Min_cycle;Max_cycle;Signal;HPM_P1;HPM_P2
2023/05/29 00:01:01;;;;;;;5.47;3.10;;;;;;;;;;5023381;28;20438;-59
2023/05/29 00:03:32;;;;;;;4.93;2.75;;;;;;;;;;5025803;28;20771;-59
2023/05/29 00:06:00;;;;;;;6.13;2.70;;;;;;;;;;5023905;28;20513;-59
2023/05/29 00:08:27;;;;;;;4.38;2.95;;;;;;;;;;5022302;28;20416;-57
2023/05/29 00:10:55;;;;;;;7.73;3.03;;;;;;;;;;5023592;28;20419;-58
2023/05/29 00:13:22;;;;;;;4.75;3.20;;;;;;;;;;5024285;28;20444;-58
2023/05/29 00:15:49;;;;;;;5.70;3.00;;;;;;;;;;5027700;28;20412;-58
2023/05/29 00:18:17;;;;;;;3.87;3.00;;;;;;;;;;5022953;28;20456;-58
2023/05/29 00:20:44;;;;;;;6.78;3.25;;;;;;;;;;5024107;28;20525;-58
2023/05/29 00:23:11;;;;;;;5.57;3.03;;;;;;;;;;5023079;28;20425;-57
2023/05/29 00:25:40;;;;;;;6.45;3.03;;;;;;;;;;5021486;28;20428;-58
2023/05/29 00:28:07;;;;;;;4.35;2.90;;;;;;;;;;5025096;28;20426;-59
2023/05/29 00:30:34;;;;;;;5.90;2.97;;;;;;;;;;5029586;28;20971;-58
2023/05/29 00:33:01;;;;;;;8.30;3.30;;;;;;;;;;5025761;28;20423;-59
2023/05/29 00:35:29;;;;;;;8.07;3.70;;;;;;;;;;5028116;28;20421;-59
2023/05/29 00:37:56;;;;;;;6.97;3.50;;;;;;;;;;5024831;28;20426;-58
2023/05/29 00:40:23;;;;;;;5.55;3.45;;;;;;;;;;5022372;28;20793;-57
2023/05/29 00:42:50;;;;;;;6.47;3.50;;;;;;;;;;5025419;28;20473;-59
2023/05/29 00:45:18;;;;;;;7.88;3.58;;;;;;;;;;5027309;28;20481;-59
2023/05/29 00:47:45;;;;;;;6.90;3.80;;;;;;;;;;5023379;28;20912;-59
2023/05/29 00:50:13;;;;;;;8.35;3.35;;;;;;;;;;5021016;28;20483;-57
2023/05/29 00:52:42;;;;;;;6.20;3.50;;;;;;;;;;5022100;28;20880;-57
2023/05/29 00:55:10;;;;;;;6.95;3.17;;;;;;;;;;5023442;28;20407;-57
2023/05/29 00:57:38;;;;;;;6.10;3.47;;;;;;;;;;5022121;28;20898;-58
2023/05/29 01:00:07;;;;;;;6.63;3.40;;;;;;;;;;5020964;28;20421;-57
2023/05/29 01:02:36;;;;;;;6.45;3.10;;;;;;;;;;5022476;28;20414;-59
2023/05/29 01:05:03;;;;;;;7.95;3.83;;;;;;;;;;5023573;28;20480;-59
2023/05/29 01:07:30;;;;;;;5.53;3.25;;;;;;;;;;5021112;28;20416;-59
2023/05/29 01:09:58;;;;;;;7.93;3.78;;;;;;;;;;5021669;28;20805;-60
2023/05/29 01:12:30;;;;;;;7.40;3.40;;;;;;;;;;5020886;28;20413;-59
2023/05/29 01:15:04;;;;;;;8.57;3.43;;;;;;;;;;5021865;28;20871;-60
2023/05/29 01:17:39;;;;;;;9.00;3.70;;;;;;;;;;5019837;28;20417;-58
2023/05/29 01:20:10;;;;;;;7.18;3.60;;;;;;;;;;5022946;28;20415;-60
2023/05/29 01:22:45;;;;;;;8.77;3.25;;;;;;;;;;5022475;28;20826;-60
2023/05/29 01:25:20;;;;;;;8.73;3.60;;;;;;;;;;5021381;28;20424;-59
2023/05/29 01:27:49;;;;;;;8.65;3.20;;;;;;;;;;5020701;28;20475;-59
2023/05/29 01:30:16;;;;;;;7.55;2.83;;;;;;;;;;5021640;28;20895;-59
2023/05/29 01:32:44;;;;;;;13.68;3.47;;;;;;;;;;5023394;28;20410;-60
2023/05/29 01:35:11;;;;;;;9.15;3.08;;;;;;;;;;5022047;28;20416;-60
2023/05/29 01:37:38;;;;;;;8.27;3.33;;;;;;;;;;5020584;28;20413;-60
2023/05/29 01:40:05;;;;;;;10.68;3.38;;;;;;;;;;5011680;28;20462;-60
2023/05/29 01:42:33;;;;;;;10.40;3.15;;;;;;;;;;5014056;28;20479;-59
2023/05/29 01:45:03;;;;;;;10.43;3.35;;;;;;;;;;5024115;28;20437;-60
2023/05/29 01:47:31;;;;;;;12.73;3.70;;;;;;;;;;5022021;28;20423;-60
2023/05/29 01:49:58;;;;;;;8.18;3.25;;;;;;;;;;5020395;28;20424;-60
2023/05/29 01:52:26;;;;;;;12.73;3.30;;;;;;;;;;5020467;28;20416;-59
2023/05/29 01:54:53;;;;;;;10.70;3.60;;;;;;;;;;5020420;28;20420;-59
2023/05/29 01:57:20;;;;;;;11.70;3.67;;;;;;;;;;5022226;28;20415;-60
2023/05/29 01:59:48;;;;;;;10.02;3.30;;;;;;;;;;5022010;28;20776;-60
2023/05/29 02:02:17;;;;;;;10.98;3.03;;;;;;;;;;5020403;28;20427;-60
2023/05/29 02:04:44;;;;;;;13.32;3.80;;;;;;;;;;5021212;28;20507;-59
2023/05/29 02:07:12;;;;;;;15.82;3.45;;;;;;;;;;5022573;28;20423;-59
2023/05/29 02:09:39;;;;;;;10.95;3.03;;;;;;;;;;5020541;28;20421;-59
2023/05/29 02:12:07;;;;;;;15.43;4.10;;;;;;;;;;5019737;28;20420;-59
2023/05/29 02:14:34;;;;;;;15.70;3.10;;;;;;;;;;5023971;28;20845;-60
2023/05/29 02:17:01;;;;;;;11.10;3.20;;;;;;;;;;5020877;28;20455;-60
2023/05/29 02:19:30;;;;;;;12.60;3.47;;;;;;;;;;5022238;28;20423;-60
2023/05/29 02:21:57;;;;;;;9.98;3.42;;;;;;;;;;5019127;28;20425;-59
2023/05/29 02:24:24;;;;;;;14.52;3.63;;;;;;;;;;5022299;28;20465;-59
2023/05/29 02:26:51;;;;;;;12.02;3.42;;;;;;;;;;5020765;28;20429;-58
2023/05/29 02:29:19;;;;;;;10.93;3.20;;;;;;;;;;5020137;28;20785;-59
2023/05/29 02:31:46;;;;;;;13.07;4.22;;;;;;;;;;5019678;28;20889;-58
2023/05/29 02:34:13;;;;;;;14.27;3.88;;;;;;;;;;5020075;28;20813;-57
2023/05/29 02:36:41;;;;;;;12.82;3.88;;;;;;;;;;5021757;28;20485;-57
2023/05/29 02:39:09;;;;;;;11.52;3.45;;;;;;;;;;5020674;28;20845;-58
2023/05/29 02:41:36;;;;;;;14.30;3.78;;;;;;;;;;5019287;28;20983;-58
2023/05/29 02:44:03;;;;;;;11.00;3.50;;;;;;;;;;5024425;28;20418;-56
2023/05/29 02:46:30;;;;;;;13.57;3.67;;;;;;;;;;5022218;28;20475;-57
2023/05/29 02:48:56;;;;;;;16.17;4.50;;;;;;;;;;5021914;28;20411;-58
2023/05/29 02:51:23;;;;;;;13.10;3.95;;;;;;;;;;5025141;28;20426;-56
2023/05/29 02:53:52;;;;;;;14.55;4.10;;;;;;;;;;5028640;28;20418;-57
2023/05/29 02:56:23;;;;;;;14.15;4.30;;;;;;;;;;5025934;28;20411;-57
2023/05/29 02:58:50;;;;;;;10.15;3.38;;;;;;;;;;5022593;28;20429;-54
2023/05/29 03:01:17;;;;;;;16.30;4.32;;;;;;;;;;5021801;28;20444;-57
2023/05/29 03:03:44;;;;;;;14.10;4.03;;;;;;;;;;5019496;28;20464;-57
2023/05/29 03:06:12;;;;;;;16.25;3.67;;;;;;;;;;5010282;28;20436;-59
2023/05/29 03:08:39;;;;;;;14.67;4.43;;;;;;;;;;5010454;28;20564;-58
2023/05/29 03:11:08;;;;;;;13.73;4.47;;;;;;;;;;5025315;28;20422;-58
2023/05/29 03:13:36;;;;;;;13.05;3.97;;;;;;;;;;5029710;28;20450;-58
2023/05/29 03:16:03;;;;;;;14.25;3.72;;;;;;;;;;5027399;28;20434;-59
2023/05/29 03:18:30;;;;;;;12.80;3.80;;;;;;;;;;5026661;28;20430;-58
2023/05/29 03:20:57;;;;;;;13.38;4.10;;;;;;;;;;5024309;28;20429;-59
2023/05/29 03:23:24;;;;;;;13.73;3.83;;;;;;;;;;5024262;28;20472;-58
2023/05/29 03:25:51;;;;;;;11.98;3.80;;;;;;;;;;5024253;28;20437;-59
2023/05/29 03:28:19;;;;;;;16.48;4.25;;;;;;;;;;5023051;28;20412;-56
2023/05/29 03:30:47;;;;;;;13.05;3.55;;;;;;;;;;5027654;28;20419;-60
2023/05/29 03:33:14;;;;;;;13.98;4.47;;;;;;;;;;5021851;28;20897;-59
2023/05/29 03:35:41;;;;;;;15.73;4.13;;;;;;;;;;5021230;28;20409;-60
2023/05/29 03:38:08;;;;;;;15.50;3.97;;;;;;;;;;5024984;28;20410;-59
2023/05/29 03:40:35;;;;;;;15.60;3.80;;;;;;;;;;5025232;28;20449;-57
2023/05/29 03:43:02;;;;;;;16.30;3.85;;;;;;;;;;5020235;28;20411;-60
2023/05/29 03:45:31;;;;;;;19.95;4.10;;;;;;;;;;5033724;28;20461;-59
2023/05/29 03:47:57;;;;;;;14.20;3.85;;;;;;;;;;5026321;28;20411;-58
2023/05/29 03:50:24;;;;;;;16.00;4.00;;;;;;;;;;5033817;28;20415;-60
2023/05/29 03:52:51;;;;;;;13.98;3.80;;;;;;;;;;5013580;28;20416;-59
2023/05/29 03:55:18;;;;;;;15.98;3.60;;;;;;;;;;5014151;28;20813;-59
2023/05/29 03:57:45;;;;;;;13.65;4.00;;;;;;;;;;5013935;28;20478;-60
2023/05/29 04:00:13;;;;;;;14.57;4.38;;;;;;;;;;5013923;28;20424;-57
2023/05/29 04:02:41;;;;;;;13.63;3.78;;;;;;;;;;5013432;28;20412;-60
2023/05/29 04:05:09;;;;;;;15.15;3.83;;;;;;;;;;5013927;28;20821;-58
2023/05/29 04:07:38;;;;;;;12.85;4.18;;;;;;;;;;5027907;28;20471;-57
2023/05/29 04:10:06;;;;;;;14.73;4.10;;;;;;;;;;5033215;28;20505;-60
2023/05/29 04:12:33;;;;;;;13.85;3.95;;;;;;;;;;5032246;28;20456;-59
2023/05/29 04:15:00;;;;;;;16.73;4.03;;;;;;;;;;5033404;28;20491;-60
2023/05/29 04:17:27;;;;;;;13.07;4.57;;;;;;;;;;5019678;28;20409;-59
2023/05/29 04:19:55;;;;;;;17.10;4.10;;;;;;;;;;5020920;28;20561;-59
2023/05/29 04:22:22;;;;;;;18.33;4.43;;;;;;;;;;5017072;28;20414;-59
2023/05/29 04:24:49;;;;;;;15.02;3.90;;;;;;;;;;5023969;28;20423;-59
2023/05/29 04:27:16;;;;;;;15.90;4.05;;;;;;;;;;5020758;28;20491;-59
2023/05/29 04:29:43;;;;;;;16.08;4.10;;;;;;;;;;5019765;28;20412;-59
2023/05/29 04:32:11;;;;;;;15.82;4.28;;;;;;;;;;5021840;28;20809;-59
2023/05/29 04:34:38;;;;;;;15.20;4.53;;;;;;;;;;5025577;28;20426;-58
2023/05/29 04:37:07;;;;;;;22.73;4.87;;;;;;;;;;5021647;28;20781;-59
2023/05/29 04:39:34;;;;;;;16.87;4.50;;;;;;;;;;5012795;28;20413;-58
2023/05/29 04:42:01;;;;;;;13.82;4.15;;;;;;;;;;5013114;28;20444;-58
2023/05/29 04:44:29;;;;;;;16.27;4.25;;;;;;;;;;5026960;28;20863;-59
2023/05/29 04:46:56;;;;;;;16.17;4.32;;;;;;;;;;5026500;28;20423;-60
2023/05/29 04:49:24;;;;;;;15.48;4.55;;;;;;;;;;5023813;28;20418;-60
2023/05/29 04:51:52;;;;;;;15.70;3.97;;;;;;;;;;5022210;28;20873;-60
2023/05/29 04:54:20;;;;;;;17.60;4.60;;;;;;;;;;5021364;28;20448;-60
2023/05/29 04:56:47;;;;;;;12.45;3.60;;;;;;;;;;5012390;28;20408;-58
2023/05/29 04:59:14;;;;;;;14.73;3.75;;;;;;;;;;5012889;28;20820;-59
2023/05/29 05:01:43;;;;;;;15.55;4.32;;;;;;;;;;5012730;28;20490;-59
2023/05/29 05:04:10;;;;;;;17.88;4.90;;;;;;;;;;5012308;28;20427;-59
2023/05/29 05:06:37;;;;;;;12.75;4.20;;;;;;;;;;5012463;28;20518;-60
2023/05/29 05:09:04;;;;;;;13.07;4.10;;;;;;;;;;5021532;28;20417;-60
2023/05/29 05:11:32;;;;;;;15.57;5.07;;;;;;;;;;5021038;28;20782;-60
2023/05/29 05:13:59;;;;;;;16.75;4.35;;;;;;;;;;5024707;28;20431;-59
2023/05/29 05:16:26;;;;;;;14.20;4.05;;;;;;;;;;5023919;28;20436;-60
2023/05/29 05:18:53;;;;;;;13.20;4.10;;;;;;;;;;5023126;28;21011;-59
2023/05/29 05:21:20;;;;;;;14.77;4.10;;;;;;;;;;5019672;28;20844;-60
2023/05/29 05:23:47;;;;;;;16.88;4.57;;;;;;;;;;5023089;28;20823;-60
2023/05/29 05:26:14;;;;;;;20.20;4.63;;;;;;;;;;5021352;28;20502;-58
2023/05/29 05:28:43;;;;;;;14.05;4.10;;;;;;;;;;5021554;28;20421;-59
2023/05/29 05:31:11;;;;;;;14.93;4.15;;;;;;;;;;5023186;28;20411;-60
2023/05/29 05:33:38;;;;;;;13.55;4.22;;;;;;;;;;5022434;28;20461;-59
2023/05/29 05:36:06;;;;;;;18.03;4.63;;;;;;;;;;5020057;28;20455;-59
2023/05/29 05:38:33;;;;;;;12.30;3.65;;;;;;;;;;5021436;28;20878;-60
2023/05/29 05:41:00;;;;;;;11.73;4.13;;;;;;;;;;5020682;28;20444;-60
2023/05/29 05:43:28;;;;;;;14.18;4.07;;;;;;;;;;5026205;28;20418;-60
2023/05/29 05:45:57;;;;;;;13.93;4.30;;;;;;;;;;5025308;28;20868;-59
2023/05/29 05:48:24;;;;;;;13.23;3.83;;;;;;;;;;5020283;28;20428;-59
2023/05/29 05:50:51;;;;;;;15.38;4.18;;;;;;;;;;5021195;28;20424;-59
2023/05/29 05:53:18;;;;;;;14.30;3.97;;;;;;;;;;5023409;28;20420;-59
2023/05/29 05:55:45;;;;;;;14.05;3.85;;;;;;;;;;5024059;28;20421;-59
2023/05/29 05:58:12;;;;;;;17.02;3.65;;;;;;;;;;5020298;28;20504;-60
2023/05/29 06:00:39;;;;;;;14.18;3.90;;;;;;;;;;5011790;28;20885;-60
2023/05/29 06:03:07;;;;;;;14.50;3.83;;;;;;;;;;5013322;28;20420;-60
2023/05/29 06:05:36;;;;;;;15.02;3.80;;;;;;;;;;5011052;28;20420;-60
2023/05/29 06:08:03;;;;;;;12.13;3.43;;;;;;;;;;5011172;28;20464;-58
2023/05/29 06:10:30;;;;;;;11.65;3.65;;;;;;;;;;5015129;28;20824;-60
2023/05/29 06:12:57;;;;;;;14.30;3.67;;;;;;;;;;5031414;28;20415;-60
2023/05/29 06:15:24;;;;;;;13.90;4.03;;;;;;;;;;5027448;28;20454;-59
2023/05/29 06:17:52;;;;;;;15.95;3.90;;;;;;;;;;5011407;28;20512;-60
2023/05/29 06:20:21;;;;;;;12.50;4.05;;;;;;;;;;5011384;28;20420;-60
2023/05/29 06:22:50;;;;;;;13.73;4.15;;;;;;;;;;5011326;28;20426;-60
2023/05/29 06:25:18;;;;;;;14.00;3.60;;;;;;;;;;5011709;28;20421;-60
2023/05/29 06:27:45;;;;;;;16.50;3.70;;;;;;;;;;5011126;28;20436;-60
2023/05/29 06:30:12;;;;;;;12.95;3.88;;;;;;;;;;5011397;28;20420;-59
2023/05/29 06:32:40;;;;;;;9.82;3.60;;;;;;;;;;5011221;28;20878;-60
2023/05/29 06:35:07;;;;;;;15.55;4.18;;;;;;;;;;5011587;28;20751;-60
2023/05/29 06:37:35;;;;;;;12.60;3.72;;;;;;;;;;5011333;28;20417;-60
2023/05/29 06:40:02;;;;;;;13.02;4.00;;;;;;;;;;5011581;28;20514;-60
2023/05/29 06:42:30;;;;;;;13.30;4.00;;;;;;;;;;5021185;28;20502;-60
2023/05/29 06:44:57;;;;;;;16.52;4.20;;;;;;;;;;5023345;28;20415;-60
2023/05/29 06:47:24;;;;;;;15.05;3.92;;;;;;;;;;5011305;28;20433;-60
2023/05/29 06:49:51;;;;;;;11.85;3.25;;;;;;;;;;5025941;28;20955;-60
2023/05/29 06:52:18;;;;;;;12.90;3.78;;;;;;;;;;5011075;28;20914;-60
2023/05/29 06:54:46;;;;;;;14.70;3.40;;;;;;;;;;5011569;28;20825;-60
2023/05/29 06:57:13;;;;;;;12.85;3.80;;;;;;;;;;5014104;28;20755;-60
2023/05/29 06:59:40;;;;;;;17.27;4.13;;;;;;;;;;5015946;28;20539;-60
2023/05/29 07:02:07;;;;;;;10.68;3.33;;;;;;;;;;5014922;28;20416;-66
2023/05/29 07:04:35;;;;;;;12.35;3.50;;;;;;;;;;5014854;28;20817;-64
2023/05/29 07:07:02;;;;;;;9.32;3.17;;;;;;;;;;5020200;28;20426;-66
2023/05/29 07:09:29;;;;;;;12.10;3.70;;;;;;;;;;5026217;28;20482;-66
2023/05/29 07:11:58;;;;;;;11.98;3.25;;;;;;;;;;5029706;28;20472;-65
2023/05/29 07:14:25;;;;;;;10.88;3.67;;;;;;;;;;5029702;28;20431;-65
2023/05/29 07:16:52;;;;;;;15.00;3.83;;;;;;;;;;5029543;28;20419;-64
2023/05/29 07:19:19;;;;;;;10.75;3.10;;;;;;;;;;5026642;28;20469;-63
2023/05/29 07:21:46;;;;;;;13.73;3.67;;;;;;;;;;5013636;28;20929;-64
2023/05/29 07:24:13;;;;;;;17.23;3.67;;;;;;;;;;5014009;28;20421;-64
2023/05/29 07:26:40;;;;;;;12.90;3.78;;;;;;;;;;5013321;28;20413;-64
2023/05/29 07:29:08;;;;;;;12.27;3.72;;;;;;;;;;5013603;28;20428;-62
2023/05/29 07:31:35;;;;;;;12.07;3.30;;;;;;;;;;5014068;28;20455;-64
2023/05/29 07:34:02;;;;;;;14.18;3.60;;;;;;;;;;5028899;28;20419;-63
2023/05/29 07:36:31;;;;;;;11.90;3.60;;;;;;;;;;5026621;28;20421;-63
2023/05/29 07:38:58;;;;;;;13.07;3.47;;;;;;;;;;5024750;28;20560;-63
2023/05/29 07:41:26;;;;;;;12.32;3.63;;;;;;;;;;5023105;28;20975;-64
2023/05/29 07:43:55;;;;;;;9.48;2.97;;;;;;;;;;5028787;28;20427;-64
2023/05/29 07:46:23;;;;;;;12.10;3.60;;;;;;;;;;5025172;28;20866;-64
2023/05/29 07:48:50;;;;;;;9.02;3.28;;;;;;;;;;5024367;28;20477;-64
2023/05/29 07:51:17;;;;;;;13.88;4.40;;;;;;;;;;5022569;28;20463;-63
2023/05/29 07:53:45;;;;;;;12.93;4.00;;;;;;;;;;5022713;28;20504;-63
2023/05/29 07:56:13;;;;;;;14.80;4.13;;;;;;;;;;5012924;28;20417;-63
2023/05/29 07:58:41;;;;;;;15.10;3.95;;;;;;;;;;5013183;28;20427;-63
2023/05/29 08:01:08;;;;;;;12.70;3.47;;;;;;;;;;5013166;28;20417;-63
2023/05/29 08:03:36;;;;;;;16.42;4.28;;;;;;;;;;5013456;28;20467;-62
2023/05/29 08:06:04;;;;;;;12.57;3.80;;;;;;;;;;5013046;28;20424;-61
2023/05/29 08:08:31;;;;;;;12.27;3.80;;;;;;;;;;5022873;28;20427;-62
2023/05/29 08:10:58;;;;;;;13.38;4.18;;;;;;;;;;5023596;28;20932;-63
2023/05/29 08:13:25;;;;;;;13.60;3.67;;;;;;;;;;5020743;28;20414;-62
2023/05/29 08:15:52;;;;;;;13.52;4.35;;;;;;;;;;5024546;28;20484;-61
2023/05/29 08:18:20;;;;;;;11.10;4.00;;;;;;;;;;5021011;28;20417;-62
2023/05/29 08:20:48;;;;;;;10.15;3.83;;;;;;;;;;5022846;28;20460;-61
2023/05/29 08:23:15;;;;;;;12.45;4.13;;;;;;;;;;5023650;28;20554;-61
2023/05/29 08:25:42;;;;;;;15.20;4.13;;;;;;;;;;5021998;28;20448;-61
2023/05/29 08:28:10;;;;;;;9.45;3.03;;;;;;;;;;5024712;28;20480;-60
2023/05/29 08:30:37;;;;;;;10.75;3.90;;;;;;;;;;5021504;28;20474;-62
2023/05/29 08:33:04;;;;;;;13.10;3.90;;;;;;;;;;5022360;28;20900;-62
2023/05/29 08:35:31;;;;;;;12.30;3.72;;;;;;;;;;5023258;28;20815;-61
2023/05/29 08:37:59;;;;;;;9.27;3.10;;;;;;;;;;5022033;28;20427;-61
2023/05/29 08:40:26;;;;;;;11.07;3.35;;;;;;;;;;5020907;28;20469;-61
2023/05/29 08:42:56;;;;;;;10.00;3.50;;;;;;;;;;5024859;28;20426;-62
2023/05/29 08:45:23;;;;;;;9.70;3.40;;;;;;;;;;5023594;28;20778;-62
2023/05/29 08:47:53;;;;;;;11.93;4.32;;;;;;;;;;5023717;28;20431;-62
2023/05/29 08:50:20;;;;;;;14.25;4.00;;;;;;;;;;5022879;28;20418;-58
2023/05/29 08:52:47;;;;;;;12.60;3.83;;;;;;;;;;5023519;28;20424;-59
2023/05/29 08:55:16;;;;;;;13.15;4.22;;;;;;;;;;5022043;28;20430;-59
2023/05/29 08:57:43;;;;;;;8.95;3.65;;;;;;;;;;5023096;28;20506;-57
2023/05/29 09:00:13;;;;;;;10.43;3.95;;;;;;;;;;5021385;28;20520;-58
2023/05/29 09:02:40;;;;;;;11.82;4.05;;;;;;;;;;5020582;28;20458;-58
2023/05/29 09:05:08;;;;;;;12.40;4.07;;;;;;;;;;5022801;28;20511;-60
2023/05/29 09:07:38;;;;;;;13.48;3.60;;;;;;;;;;5022684;28;20478;-59
2023/05/29 09:10:06;;;;;;;13.98;4.10;;;;;;;;;;5019343;28;20463;-57
2023/05/29 09:12:34;;;;;;;10.82;3.85;;;;;;;;;;5022164;28;20423;-59
2023/05/29 09:15:01;;;;;;;12.73;3.67;;;;;;;;;;5024428;28;20476;-58
2023/05/29 09:17:32;;;;;;;12.00;3.38;;;;;;;;;;5021281;28;20411;-57
2023/05/29 09:20:00;;;;;;;12.57;3.97;;;;;;;;;;5024060;28;20785;-61
2023/05/29 09:22:27;;;;;;;14.38;3.67;;;;;;;;;;5022122;28;20451;-61
2023/05/29 09:24:54;;;;;;;9.00;2.78;;;;;;;;;;5019763;28;20502;-65
2023/05/29 09:27:22;;;;;;;13.80;4.30;;;;;;;;;;5021651;28;20472;-61
2023/05/29 09:29:51;;;;;;;8.35;2.83;;;;;;;;;;5022265;28;20484;-59
2023/05/29 09:32:19;;;;;;;12.50;3.87;;;;;;;;;;5020429;28;20508;-58
2023/05/29 09:34:46;;;;;;;13.25;3.50;;;;;;;;;;5021013;28;20412;-60
2023/05/29 09:37:13;;;;;;;10.25;3.40;;;;;;;;;;5022240;28;20411;-58
2023/05/29 09:39:47;;;;;;;12.80;3.97;;;;;;;;;;5021555;28;20420;-64
2023/05/29 09:42:14;;;;;;;12.63;3.80;;;;;;;;;;5022095;28;20573;-61
2023/05/29 09:44:41;;;;;;;9.68;3.53;;;;;;;;;;5029667;28;20420;-62
2023/05/29 09:47:10;;;;;;;12.40;3.47;;;;;;;;;;5025421;28;20415;-62
2023/05/29 09:49:42;;;;;;;11.65;3.50;;;;;;;;;;5020709;28;20480;-62
2023/05/29 09:52:09;;;;;;;12.13;3.28;;;;;;;;;;5019731;28;20806;-62
2023/05/29 09:54:37;;;;;;;11.30;3.80;;;;;;;;;;5020695;28;20411;-60
2023/05/29 09:57:05;;;;;;;12.63;2.80;;;;;;;;;;5022293;28;20423;-59
2023/05/29 09:59:32;;;;;;;10.98;2.90;;;;;;;;;;5024851;28;20481;-57
2023/05/29 10:02:02;;;;;;;10.32;3.22;;;;;;;;;;5022071;28;20449;-57
2023/05/29 10:04:32;;;;;;;12.20;3.47;;;;;;;;;;5010752;28;20462;-60
2023/05/29 10:07:01;;;;;;;8.70;3.00;;;;;;;;;;5010588;28;20432;-61
2023/05/29 10:09:28;;;;;;;11.60;3.15;;;;;;;;;;5015888;28;20889;-61
2023/05/29 10:11:57;;;;;;;10.23;3.17;;;;;;;;;;5019783;28;20420;-61
2023/05/29 10:14:27;;;;;;;11.77;3.47;;;;;;;;;;5025593;28;20422;-61
2023/05/29 10:16:57;;;;;;;10.40;3.38;;;;;;;;;;5017339;28;20468;-61
2023/05/29 10:19:26;;;;;;;10.13;3.22;;;;;;;;;;5019622;28;20825;-63
2023/05/29 10:21:55;;;;;;;10.35;3.00;;;;;;;;;;5023720;28;20415;-61
2023/05/29 10:24:23;;;;;;;11.80;3.20;;;;;;;;;;5022235;28;20469;-62
2023/05/29 10:26:51;;;;;;;10.55;3.72;;;;;;;;;;5017707;28;20817;-60
2023/05/29 10:29:21;;;;;;;10.00;3.53;;;;;;;;;;5022104;28;20426;-61
2023/05/29 10:31:53;;;;;;;10.75;3.08;;;;;;;;;;5020358;28;20427;-62
2023/05/29 10:34:25;;;;;;;12.37;3.70;;;;;;;;;;5019510;28;20467;-62
2023/05/29 10:36:58;;;;;;;12.63;4.30;;;;;;;;;;5019797;28;20416;-61
2023/05/29 10:39:25;;;;;;;11.65;3.13;;;;;;;;;;5011060;28;20462;-62
2023/05/29 10:41:54;;;;;;;9.52;3.30;;;;;;;;;;5010261;28;20420;-62
2023/05/29 10:44:41;;;;;;;9.80;2.80;;;;;;;;;;5024006;28;20449;-61
2023/05/29 10:47:08;;;;;;;12.63;4.43;;;;;;;;;;5017811;28;20494;-61
2023/05/29 10:49:35;;;;;;;13.90;3.45;;;;;;;;;;5021729;28;20431;-61
2023/05/29 10:52:04;;;;;;;10.67;3.10;;;;;;;;;;5019160;28;20917;-61
2023/05/29 10:54:41;;;;;;;12.60;3.47;;;;;;;;;;5019832;28;20420;-61
2023/05/29 10:57:10;;;;;;;11.27;3.15;;;;;;;;;;5019899;28;20901;-61
2023/05/29 10:59:37;;;;;;;6.40;2.92;;;;;;;;;;5019332;28;20408;-60
2023/05/29 11:02:06;;;;;;;12.43;4.22;;;;;;;;;;5020419;28;20415;-61
2023/05/29 11:04:34;;;;;;;11.43;3.60;;;;;;;;;;5021815;28;20450;-61
2023/05/29 11:07:03;;;;;;;11.25;3.40;;;;;;;;;;5019574;28;20416;-59
2023/05/29 11:09:34;;;;;;;9.50;2.67;;;;;;;;;;5019486;28;20428;-60
2023/05/29 11:12:12;;;;;;;13.13;3.20;;;;;;;;;;5019106;28;20482;-58
2023/05/29 11:14:46;;;;;;;11.52;3.00;;;;;;;;;;5023831;28;20412;-60
2023/05/29 11:17:28;;;;;;;9.65;3.08;;;;;;;;;;5019018;28;20423;-59
2023/05/29 11:19:55;;;;;;;11.50;3.10;;;;;;;;;;5010116;28;20424;-61
2023/05/29 11:22:25;;;;;;;12.15;3.15;;;;;;;;;;5010328;28;20455;-61
2023/05/29 11:24:54;;;;;;;10.75;3.17;;;;;;;;;;5010777;28;20423;-60
2023/05/29 11:27:21;;;;;;;10.47;3.00;;;;;;;;;;5010218;28;20544;-60
2023/05/29 11:29:53;;;;;;;9.50;2.85;;;;;;;;;;5013149;28;20424;-60
2023/05/29 11:32:21;;;;;;;12.20;4.83;;;;;;;;;;5018398;28;20425;-59
2023/05/29 11:34:49;;;;;;;9.77;3.55;;;;;;;;;;5019884;28;20821;-61
2023/05/29 11:37:16;;;;;;;11.73;3.70;;;;;;;;;;5021291;28;20419;-61
2023/05/29 11:39:43;;;;;;;11.47;3.57;;;;;;;;;;5019822;28;20444;-61
2023/05/29 11:42:13;;;;;;;11.23;3.33;;;;;;;;;;5018721;28;20808;-61
2023/05/29 11:44:39;;;;;;;7.22;2.80;;;;;;;;;;5026876;28;20453;-61
2023/05/29 11:47:07;;;;;;;7.72;2.88;;;;;;;;;;5019917;28;20428;-59
2023/05/29 11:49:36;;;;;;;8.63;3.08;;;;;;;;;;5023240;28;20447;-61
2023/05/29 11:52:09;;;;;;;12.15;3.25;;;;;;;;;;5027953;28;20451;-61
2023/05/29 11:54:36;;;;;;;11.90;3.30;;;;;;;;;;5022481;28;20417;-60
2023/05/29 11:57:05;;;;;;;9.32;2.97;;;;;;;;;;5022365;28;20952;-59
2023/05/29 11:59:34;;;;;;;7.43;2.53;;;;;;;;;;5022118;28;20417;-61
2023/05/29 12:02:01;;;;;;;11.30;2.83;;;;;;;;;;5022548;28;20416;-60
2023/05/29 12:04:28;;;;;;;8.63;3.05;;;;;;;;;;5024116;28;20799;-60
2023/05/29 12:06:55;;;;;;;9.98;3.20;;;;;;;;;;5023053;28;20828;-59
2023/05/29 12:09:25;;;;;;;9.20;3.00;;;;;;;;;;5021755;28;20432;-61
2023/05/29 12:11:52;;;;;;;9.27;3.30;;;;;;;;;;5022916;28;20918;-61
2023/05/29 12:14:19;;;;;;;10.63;3.38;;;;;;;;;;5026704;28;20876;-59
2023/05/29 12:16:48;;;;;;;9.75;2.80;;;;;;;;;;5025336;28;20854;-60
2023/05/29 12:19:15;;;;;;;7.90;2.65;;;;;;;;;;5023189;28;20414;-59
2023/05/29 12:21:43;;;;;;;7.97;3.10;;;;;;;;;;5027192;28;20416;-61
2023/05/29 12:24:10;;;;;;;9.93;3.13;;;;;;;;;;5022686;28;20450;-58
2023/05/29 12:26:37;;;;;;;12.17;5.03;;;;;;;;;;5023992;28;20575;-61
2023/05/29 12:29:05;;;;;;;7.85;3.30;;;;;;;;;;5022120;28;20979;-59
2023/05/29 12:31:33;;;;;;;10.00;3.70;;;;;;;;;;5021620;28;20770;-59
2023/05/29 12:34:03;;;;;;;10.70;4.40;;;;;;;;;;5012959;28;20504;-59
2023/05/29 12:36:30;;;;;;;9.13;3.72;;;;;;;;;;5012992;28;20459;-61
2023/05/29 12:38:58;;;;;;;10.00;3.00;;;;;;;;;;5012706;28;20902;-62
2023/05/29 12:41:26;;;;;;;9.02;2.80;;;;;;;;;;5012454;28;20423;-61
2023/05/29 12:43:54;;;;;;;8.33;2.67;;;;;;;;;;5024030;28;20811;-61
2023/05/29 12:46:21;;;;;;;9.90;2.95;;;;;;;;;;5023840;28;20422;-61
2023/05/29 12:48:49;;;;;;;10.95;3.30;;;;;;;;;;5023630;28;20476;-61
2023/05/29 12:51:19;;;;;;;9.68;3.97;;;;;;;;;;5021740;28;20534;-61
2023/05/29 12:53:46;;;;;;;9.23;3.20;;;;;;;;;;5020771;28;20416;-61
2023/05/29 12:56:13;;;;;;;8.45;3.85;;;;;;;;;;5023171;28;20536;-58
2023/05/29 12:58:40;;;;;;;9.80;3.13;;;;;;;;;;5023092;28;20518;-61
2023/05/29 13:01:14;;;;;;;6.63;2.83;;;;;;;;;;5020536;28;20866;-60
2023/05/29 13:03:41;;;;;;;13.98;3.20;;;;;;;;;;5021014;28;20904;-61
2023/05/29 13:06:08;;;;;;;8.23;2.60;;;;;;;;;;5023304;28;20819;-62
2023/05/29 13:08:36;;;;;;;7.10;2.63;;;;;;;;;;5022132;28;20956;-61
2023/05/29 13:11:03;;;;;;;7.28;2.75;;;;;;;;;;5020282;28;20417;-58
2023/05/29 13:13:30;;;;;;;10.27;3.03;;;;;;;;;;5025832;28;20826;-61
2023/05/29 13:15:57;;;;;;;8.52;3.30;;;;;;;;;;5024978;28;20419;-60
2023/05/29 13:18:24;;;;;;;6.35;3.30;;;;;;;;;;5020703;28;20900;-61
2023/05/29 13:20:51;;;;;;;9.52;2.95;;;;;;;;;;5021026;28;20420;-60
2023/05/29 13:23:18;;;;;;;11.45;3.00;;;;;;;;;;5023483;28;20464;-61
2023/05/29 13:25:49;;;;;;;8.07;2.70;;;;;;;;;;5021526;28;20416;-59
2023/05/29 13:28:16;;;;;;;7.47;2.72;;;;;;;;;;5020647;28;20421;-61
2023/05/29 13:30:43;;;;;;;8.77;2.63;;;;;;;;;;5021493;28;20457;-61
2023/05/29 13:33:10;;;;;;;8.82;3.50;;;;;;;;;;5022908;28;20469;-59
2023/05/29 13:35:37;;;;;;;7.43;2.83;;;;;;;;;;5011171;28;20444;-60
2023/05/29 13:38:04;;;;;;;7.43;2.65;;;;;;;;;;5017985;28;20419;-60
2023/05/29 13:40:31;;;;;;;9.00;3.38;;;;;;;;;;5025562;28;20417;-61
2023/05/29 13:43:00;;;;;;;8.73;2.88;;;;;;;;;;5025222;28;20441;-61
2023/05/29 13:45:27;;;;;;;9.35;2.97;;;;;;;;;;5023578;28;20421;-62
2023/05/29 13:47:54;;;;;;;8.82;3.00;;;;;;;;;;5023958;28;20467;-61
2023/05/29 13:50:23;;;;;;;8.95;3.25;;;;;;;;;;5019976;28;20459;-61
2023/05/29 13:52:50;;;;;;;6.32;2.63;;;;;;;;;;5011295;28;20812;-59
2023/05/29 13:55:17;;;;;;;6.07;2.80;;;;;;;;;;5011300;28;20413;-61
2023/05/29 13:57:44;;;;;;;7.32;2.85;;;;;;;;;;5011261;28;20816;-60
2023/05/29 14:00:13;;;;;;;8.18;3.00;;;;;;;;;;5011058;28;20448;-61
2023/05/29 14:02:40;;;;;;;7.57;3.00;;;;;;;;;;5011214;28;20471;-61
2023/05/29 14:05:09;;;;;;;7.63;2.90;;;;;;;;;;5020874;28;20448;-61
2023/05/29 14:07:36;;;;;;;7.93;3.05;;;;;;;;;;5019618;28;20478;-61
2023/05/29 14:10:03;;;;;;;7.55;2.75;;;;;;;;;;5011084;28;20451;-59
2023/05/29 14:12:30;;;;;;;9.65;3.25;;;;;;;;;;5012825;28;20959;-61
2023/05/29 14:14:57;;;;;;;10.43;3.07;;;;;;;;;;5023329;28;20496;-59
2023/05/29 14:17:25;;;;;;;7.40;2.83;;;;;;;;;;5021286;28;21195;-60
2023/05/29 14:19:52;;;;;;;9.23;3.20;;;;;;;;;;5021982;28;20754;-60
2023/05/29 14:22:19;;;;;;;11.35;3.10;;;;;;;;;;5020290;28;20666;-59
2023/05/29 14:24:46;;;;;;;8.82;3.28;;;;;;;;;;5020190;28;20412;-67
2023/05/29 14:27:13;;;;;;;7.30;2.72;;;;;;;;;;5025480;28;20415;-63
2023/05/29 14:29:41;;;;;;;6.55;2.70;;;;;;;;;;5025720;28;20430;-60
2023/05/29 14:32:08;;;;;;;7.85;3.28;;;;;;;;;;5026206;28;20419;-62
2023/05/29 14:34:36;;;;;;;8.85;3.20;;;;;;;;;;5022371;28;20423;-61
2023/05/29 14:37:03;;;;;;;6.60;2.97;;;;;;;;;;5017470;28;20490;-62